createdAt,value
2023-05-11T00:01:04.893Z,14.13
2023-05-11T00:03:52.330Z,14.90
2023-05-11T00:06:37.995Z,15.48
2023-05-11T00:09:23.968Z,15.85
2023-05-11T00:12:09.516Z,14.88
2023-05-11T00:14:55.470Z,15.82
2023-05-11T00:17:40.970Z,15.93
2023-05-11T00:20:27.900Z,15.32
2023-05-11T00:23:13.292Z,14.77
2023-05-11T00:25:59.144Z,15.25
2023-05-11T00:28:45.391Z,14.82
2023-05-11T00:31:31.236Z,15.25
2023-05-11T00:34:17.771Z,14.95
2023-05-11T00:37:04.677Z,15.65
2023-05-11T00:39:50.433Z,16.25
2023-05-11T00:42:36.499Z,15.15
2023-05-11T00:45:22.012Z,16.60
2023-05-11T00:48:08.702Z,17.10
2023-05-11T00:50:54.987Z,16.33
2023-05-11T00:53:45.506Z,15.65
2023-05-11T00:56:31.211Z,15.52
2023-05-11T00:59:17.148Z,15.63
2023-05-11T01:02:04.224Z,16.58
2023-05-11T01:04:50.530Z,15.63
2023-05-11T01:07:43.905Z,17.13
2023-05-11T01:10:34.633Z,17.30
2023-05-11T01:16:20.827Z,15.77
2023-05-11T01:19:18.508Z,16.05
2023-05-11T01:22:10.240Z,16.77
2023-05-11T01:25:07.232Z,17.63
2023-05-11T01:28:26.045Z,18.48
2023-05-11T01:31:15.389Z,18.13
2023-05-11T01:34:04.436Z,17.42
2023-05-11T01:36:54.750Z,18.42
2023-05-11T01:39:44.002Z,18.88
2023-05-11T01:42:35.406Z,18.38
2023-05-11T01:45:23.828Z,18.63
2023-05-11T01:48:17.091Z,17.48
2023-05-11T01:51:04.393Z,18.42
2023-05-11T01:53:50.794Z,18.52
2023-05-11T01:56:38.663Z,17.13
2023-05-11T01:59:26.154Z,17.25
2023-05-11T02:02:13.552Z,18.35
2023-05-11T02:05:03.087Z,17.58
2023-05-11T02:07:51.207Z,18.20
2023-05-11T02:10:38.659Z,17.48
2023-05-11T02:13:26.514Z,17.40
2023-05-11T02:16:12.843Z,17.50
2023-05-11T02:18:59.975Z,18.15
2023-05-11T02:21:49.136Z,18.50
2023-05-11T02:24:35.846Z,18.48
2023-05-11T02:27:21.756Z,18.02
2023-05-11T02:30:08.827Z,17.83
2023-05-11T02:32:58.741Z,17.42
2023-05-11T02:35:45.981Z,18.00
2023-05-11T02:38:34.722Z,18.50
2023-05-11T02:41:29.460Z,17.38
2023-05-11T02:44:18.818Z,16.30
2023-05-11T02:47:07.698Z,17.80
2023-05-11T02:49:57.772Z,17.90
2023-05-11T02:52:47.390Z,18.27
2023-05-11T02:55:34.515Z,18.13
2023-05-11T02:58:20.994Z,18.83
2023-05-11T03:01:13.592Z,20.00
2023-05-11T03:03:59.659Z,20.98
2023-05-11T03:06:47.943Z,20.58
2023-05-11T03:09:35.104Z,20.80
2023-05-11T03:12:23.582Z,20.33
2023-05-11T03:15:12.219Z,20.55
2023-05-11T03:18:00.721Z,20.70
2023-05-11T03:20:48.120Z,19.40
2023-05-11T03:23:36.112Z,20.23
2023-05-11T03:26:22.664Z,19.10
2023-05-11T03:29:11.692Z,18.80
2023-05-11T03:31:57.727Z,19.23
2023-05-11T03:34:44.325Z,19.88
2023-05-11T03:37:36.151Z,18.48
2023-05-11T03:40:24.097Z,20.67
2023-05-11T03:43:17.996Z,18.58
2023-05-11T03:46:07.953Z,20.15
2023-05-11T03:48:55.162Z,19.63
2023-05-11T03:51:45.650Z,18.90
2023-05-11T03:54:32.292Z,18.33
2023-05-11T03:57:17.978Z,18.27
2023-05-11T04:00:06.543Z,18.52
2023-05-11T04:03:05.621Z,18.08
2023-05-11T04:05:51.301Z,19.08
2023-05-11T04:08:37.006Z,18.55
2023-05-11T04:11:22.901Z,18.98
2023-05-11T04:14:08.690Z,18.55
2023-05-11T04:16:54.723Z,17.92
2023-05-11T04:19:41.750Z,18.13
2023-05-11T04:22:27.407Z,18.83
2023-05-11T04:25:13.761Z,20.20
2023-05-11T04:27:59.473Z,19.38
2023-05-11T04:30:45.147Z,19.10
2023-05-11T04:33:31.620Z,19.80
2023-05-11T04:36:20.380Z,18.92
2023-05-11T04:39:07.856Z,19.23
2023-05-11T04:41:55.951Z,18.10
2023-05-11T04:44:43.623Z,19.65
2023-05-11T04:47:29.334Z,20.80
2023-05-11T04:50:15.875Z,20.67
2023-05-11T04:53:02.989Z,20.50
2023-05-11T04:55:49.284Z,19.58
2023-05-11T04:58:35.244Z,21.17
2023-05-11T05:01:21.167Z,19.88
2023-05-11T05:04:09.937Z,19.73
2023-05-11T05:06:57.078Z,18.95
2023-05-11T05:09:45.469Z,20.15
2023-05-11T05:12:33.300Z,20.08
2023-05-11T05:15:18.874Z,19.83
2023-05-11T05:18:04.698Z,19.13
2023-05-11T05:20:50.810Z,20.50
2023-05-11T05:23:36.939Z,21.35
2023-05-11T05:26:24.556Z,21.55
2023-05-11T05:29:10.622Z,20.60
2023-05-11T05:31:59.847Z,20.98
2023-05-11T05:34:49.281Z,20.85
2023-05-11T05:37:37.388Z,20.20
2023-05-11T05:40:23.540Z,20.45
2023-05-11T05:43:14.452Z,20.25
2023-05-11T05:46:02.253Z,19.38
2023-05-11T05:48:48.846Z,19.48
2023-05-11T05:51:34.758Z,18.48
2023-05-11T05:54:21.718Z,18.77
2023-05-11T05:57:07.528Z,19.00
2023-05-11T05:59:54.811Z,18.85
2023-05-11T06:02:41.727Z,18.30
2023-05-11T06:05:34.358Z,18.88
2023-05-11T06:08:20.371Z,19.13
2023-05-11T06:11:06.292Z,18.58
2023-05-11T06:13:52.356Z,19.83
2023-05-11T06:16:39.565Z,21.23
2023-05-11T06:19:25.558Z,20.83
2023-05-11T06:22:12.052Z,21.23
2023-05-11T06:24:58.098Z,21.20
2023-05-11T06:27:45.352Z,20.73
2023-05-11T06:30:31.424Z,19.73
2023-05-11T06:33:19.677Z,19.63
2023-05-11T06:36:06.573Z,20.98
2023-05-11T06:39:00.011Z,20.20
2023-05-11T06:41:46.179Z,19.83
2023-05-11T06:44:32.351Z,18.90
2023-05-11T06:47:17.968Z,17.67
2023-05-11T06:50:06.030Z,16.92
2023-05-11T06:52:51.715Z,17.02
2023-05-11T06:55:37.985Z,16.73
2023-05-11T06:58:23.862Z,15.80
2023-05-11T07:01:09.371Z,15.23
2023-05-11T07:03:55.492Z,14.75
2023-05-11T07:06:42.984Z,14.40
2023-05-11T07:09:28.681Z,14.13
2023-05-11T07:12:14.618Z,14.38
2023-05-11T07:15:00.238Z,13.80
2023-05-11T07:17:49.806Z,12.80
2023-05-11T07:20:40.061Z,12.15
2023-05-11T07:23:27.147Z,12.38
2023-05-11T07:26:12.909Z,12.85
2023-05-11T07:28:58.504Z,13.82
2023-05-11T07:31:44.381Z,15.18
2023-05-11T07:34:30.791Z,16.05
2023-05-11T07:37:22.580Z,16.25
2023-05-11T07:40:11.281Z,15.82
2023-05-11T07:42:57.241Z,15.75
2023-05-11T07:45:42.904Z,17.08
2023-05-11T07:48:28.871Z,19.08
2023-05-11T07:51:15.260Z,20.02
2023-05-11T07:54:01.001Z,19.73
2023-05-11T07:56:48.047Z,19.67
2023-05-11T07:59:33.871Z,20.20
2023-05-11T08:02:19.687Z,19.88
2023-05-11T08:05:06.339Z,19.75
2023-05-11T08:07:51.943Z,18.52
2023-05-11T08:10:38.015Z,20.23
2023-05-11T08:13:25.912Z,19.67
2023-05-11T08:16:11.786Z,19.27
2023-05-11T08:18:57.952Z,20.15
2023-05-11T08:21:44.915Z,19.42
2023-05-11T08:24:30.467Z,18.83
2023-05-11T08:27:16.499Z,18.30
2023-05-11T08:30:05.109Z,18.25
2023-05-11T08:32:58.663Z,18.10
2023-05-11T08:35:45.375Z,16.40
2023-05-11T08:38:31.297Z,17.70
2023-05-11T08:41:17.232Z,18.13
2023-05-11T08:44:03.860Z,17.40
2023-05-11T08:47:03.655Z,18.48
2023-05-11T08:49:58.887Z,17.52
2023-05-11T08:52:45.093Z,17.40
2023-05-11T08:55:33.246Z,16.27
2023-05-11T08:58:22.343Z,15.00
2023-05-11T09:01:10.150Z,15.18
2023-05-11T09:03:58.435Z,14.98
2023-05-11T09:06:44.488Z,15.23
2023-05-11T09:09:31.117Z,14.10
2023-05-11T09:12:17.225Z,14.82
2023-05-11T09:15:03.340Z,15.77
2023-05-11T09:17:49.593Z,14.80
2023-05-11T09:20:36.955Z,13.88
2023-05-11T09:23:26.471Z,14.65
2023-05-11T09:26:15.552Z,13.68
2023-05-11T09:29:03.394Z,15.25
2023-05-11T09:31:50.019Z,15.82
2023-05-11T09:34:36.082Z,16.88
2023-05-11T09:37:23.341Z,15.63
2023-05-11T09:40:25.725Z,15.15
2023-05-11T09:43:17.896Z,16.45
2023-05-11T09:46:07.469Z,17.75
2023-05-11T09:49:00.177Z,15.85
2023-05-11T09:51:46.001Z,15.18
2023-05-11T09:54:42.768Z,16.10
2023-05-11T09:57:30.630Z,16.98
2023-05-11T10:00:16.756Z,17.85
2023-05-11T10:03:04.914Z,17.00
2023-05-11T10:05:57.789Z,17.23
2023-05-11T10:08:43.816Z,18.13
2023-05-11T10:11:30.727Z,17.88
2023-05-11T10:14:19.081Z,16.13
2023-05-11T10:17:05.709Z,16.02
2023-05-11T10:19:54.421Z,14.32
2023-05-11T10:22:40.662Z,12.90
2023-05-11T10:25:26.716Z,14.15
2023-05-11T10:28:13.980Z,14.30
2023-05-11T10:31:00.118Z,14.43
2023-05-11T10:33:49.092Z,15.68
2023-05-11T10:36:35.153Z,12.43
2023-05-11T10:39:21.594Z,15.27
2023-05-11T10:42:25.530Z,14.70
2023-05-11T10:45:22.607Z,14.27
2023-05-11T10:48:24.877Z,14.38
2023-05-11T10:51:46.267Z,14.10
2023-05-11T10:54:46.534Z,15.73
2023-05-11T10:57:47.879Z,16.40
2023-05-11T11:03:39.427Z,15.40
2023-05-11T11:06:25.784Z,16.25
2023-05-11T11:09:15.589Z,15.35
2023-05-11T11:12:09.706Z,14.80
2023-05-11T11:14:57.637Z,16.17
2023-05-11T11:17:44.847Z,14.20
2023-05-11T11:20:48.867Z,15.13
2023-05-11T11:23:42.304Z,15.80
2023-05-11T11:26:47.957Z,15.60
2023-05-11T11:29:35.079Z,14.27
2023-05-11T11:32:27.512Z,15.13
2023-05-11T11:35:45.937Z,14.85
2023-05-11T11:38:34.065Z,16.73
2023-05-11T11:41:29.113Z,19.77
2023-05-11T11:44:21.928Z,19.73
2023-05-11T11:47:11.689Z,20.10
2023-05-11T11:50:13.171Z,20.88
2023-05-11T11:52:59.600Z,17.85
2023-05-11T11:55:48.922Z,20.05
2023-05-11T11:58:59.805Z,18.58
2023-05-11T12:01:45.864Z,14.82
2023-05-11T12:04:39.897Z,14.68
2023-05-11T12:07:26.828Z,12.70
2023-05-11T12:10:14.080Z,12.52
2023-05-11T12:13:01.733Z,14.75
2023-05-11T12:15:47.553Z,16.40
2023-05-11T12:18:33.548Z,15.95
2023-05-11T12:21:21.034Z,16.15
2023-05-11T12:24:07.315Z,16.10
2023-05-11T12:26:56.984Z,16.02
2023-05-11T12:29:49.069Z,16.02
2023-05-11T12:32:35.134Z,16.08
2023-05-11T12:35:24.267Z,16.58
2023-05-11T12:38:11.205Z,16.20
2023-05-11T12:40:56.902Z,16.40
2023-05-11T12:43:42.898Z,14.63
2023-05-11T12:46:30.221Z,14.40
2023-05-11T12:49:24.754Z,12.50
2023-05-11T12:52:13.768Z,11.15
2023-05-11T12:55:00.811Z,11.13
2023-05-11T12:57:46.592Z,10.48
2023-05-11T13:00:32.444Z,10.75
2023-05-11T13:03:23.273Z,10.80
2023-05-11T13:06:11.366Z,10.68
2023-05-11T13:08:56.964Z,11.98
2023-05-11T13:11:42.831Z,11.38
2023-05-11T13:14:31.691Z,13.15
2023-05-11T13:17:31.060Z,14.52
2023-05-11T13:20:20.065Z,15.35
2023-05-11T13:23:07.933Z,15.93
2023-05-11T13:25:54.241Z,15.38
2023-05-11T13:28:40.050Z,16.40
2023-05-11T13:31:26.155Z,15.82
2023-05-11T13:34:12.557Z,14.25
2023-05-11T13:36:59.543Z,13.40
2023-05-11T13:39:45.278Z,11.90
2023-05-11T13:42:31.241Z,10.25
2023-05-11T13:45:17.063Z,8.27
2023-05-11T13:48:03.667Z,7.50
2023-05-11T13:50:49.901Z,6.28
2023-05-11T13:53:36.750Z,6.68
2023-05-11T13:56:22.976Z,6.70
2023-05-11T13:59:09.346Z,6.65
2023-05-11T14:01:55.177Z,5.78
2023-05-11T14:04:41.732Z,4.78
2023-05-11T14:07:35.585Z,5.72
2023-05-11T14:10:30.309Z,7.13
2023-05-11T14:13:16.134Z,6.53
2023-05-11T14:16:02.415Z,7.07
2023-05-11T14:18:50.244Z,7.55
2023-05-11T14:21:36.537Z,9.00
2023-05-11T14:24:22.730Z,10.13
2023-05-11T14:27:09.649Z,10.88
2023-05-11T14:29:55.583Z,10.50
2023-05-11T14:32:41.144Z,19.50
2023-05-11T14:35:27.218Z,9.40
2023-05-11T14:38:12.731Z,7.20
2023-05-11T14:41:00.001Z,5.88
2023-05-11T14:43:49.163Z,5.72
2023-05-11T14:46:34.996Z,6.32
2023-05-11T14:49:20.964Z,5.88
2023-05-11T14:52:06.910Z,6.72
2023-05-11T14:54:52.797Z,6.90
2023-05-11T14:57:38.926Z,7.85
2023-05-11T15:00:25.840Z,7.60
2023-05-11T15:03:11.761Z,7.50
2023-05-11T15:05:57.419Z,9.45
2023-05-11T15:08:43.231Z,7.22
2023-05-11T15:11:28.836Z,7.43
2023-05-11T15:14:14.925Z,7.60
2023-05-11T15:17:02.486Z,6.72
2023-05-11T15:19:48.222Z,6.95
2023-05-11T15:22:34.414Z,5.85
2023-05-11T15:25:21.092Z,6.32
2023-05-11T15:28:07.258Z,6.43
2023-05-11T15:30:52.928Z,6.95
2023-05-11T15:33:40.079Z,6.47
2023-05-11T15:36:29.726Z,6.32
2023-05-11T15:39:16.180Z,6.57
2023-05-11T15:42:02.876Z,6.43
2023-05-11T15:44:48.503Z,6.18
2023-05-11T15:47:34.378Z,5.90
2023-05-11T15:50:22.061Z,6.15
2023-05-11T15:53:08.120Z,5.35
2023-05-11T15:55:55.367Z,5.53
2023-05-11T15:58:41.580Z,6.22
2023-05-11T16:01:27.316Z,5.43
2023-05-11T16:04:12.957Z,5.50
2023-05-11T16:06:59.638Z,4.80
2023-05-11T16:09:45.037Z,4.57
2023-05-11T16:12:30.643Z,3.78
2023-05-11T16:15:16.955Z,3.55
2023-05-11T16:18:04.892Z,4.47
2023-05-11T16:20:51.604Z,4.53
2023-05-11T16:23:38.940Z,5.03
2023-05-11T16:26:24.588Z,6.13
2023-05-11T16:29:10.644Z,4.10
2023-05-11T16:31:57.224Z,1.88
2023-05-11T16:34:43.106Z,2.17
2023-05-11T16:37:29.149Z,2.08
2023-05-11T16:40:19.376Z,2.50
2023-05-11T16:43:06.144Z,2.58
2023-05-11T16:45:53.774Z,3.00
2023-05-11T16:48:39.640Z,3.00
2023-05-11T16:51:25.301Z,2.90
2023-05-11T16:54:11.132Z,3.88
2023-05-11T16:56:58.391Z,3.30
2023-05-11T16:59:44.152Z,3.97
2023-05-11T17:02:31.163Z,4.07
2023-05-11T17:05:18.231Z,4.72
2023-05-11T17:08:04.371Z,4.60
2023-05-11T17:10:50.525Z,4.00
2023-05-11T17:13:37.517Z,4.53
2023-05-11T17:16:25.744Z,3.92
2023-05-11T17:19:11.909Z,4.97
2023-05-11T17:21:57.430Z,4.90
2023-05-11T17:24:43.241Z,4.30
2023-05-11T17:27:29.957Z,4.00
2023-05-11T17:30:17.659Z,4.82
2023-05-11T17:33:03.791Z,5.65
2023-05-11T17:35:50.747Z,5.22
2023-05-11T17:38:36.911Z,5.90
2023-05-11T17:41:23.001Z,5.45
2023-05-11T17:44:09.470Z,5.72
2023-05-11T17:46:56.483Z,6.53
2023-05-11T17:49:42.604Z,6.50
2023-05-11T17:52:28.859Z,5.80
2023-05-11T17:55:14.664Z,5.28
2023-05-11T17:58:00.341Z,6.00
2023-05-11T18:00:49.443Z,5.97
2023-05-11T18:03:37.931Z,5.90
2023-05-11T18:06:24.202Z,6.60
2023-05-11T18:09:12.473Z,6.82
2023-05-11T18:11:58.383Z,6.88
2023-05-11T18:14:44.358Z,7.13
2023-05-11T18:17:30.054Z,6.43
2023-05-11T18:20:17.581Z,6.95
2023-05-11T18:23:03.811Z,7.15
2023-05-11T18:25:49.670Z,6.70
2023-05-11T18:28:35.808Z,6.50
2023-05-11T18:31:21.897Z,6.80
2023-05-11T18:34:07.983Z,7.22
2023-05-11T18:36:55.504Z,6.78
2023-05-11T18:39:41.473Z,6.90
2023-05-11T18:42:27.053Z,6.50
2023-05-11T18:45:13.886Z,7.32
2023-05-11T18:47:59.873Z,6.70
2023-05-11T18:50:45.578Z,7.40
2023-05-11T18:53:33.216Z,7.65
2023-05-11T18:56:19.141Z,7.68
2023-05-11T18:59:05.100Z,8.32
2023-05-11T19:01:50.777Z,8.05
2023-05-11T19:04:36.634Z,8.73
2023-05-11T19:07:22.391Z,9.27
2023-05-11T19:10:09.986Z,9.75
2023-05-11T19:12:55.820Z,10.38
2023-05-11T19:15:41.217Z,9.95
2023-05-11T19:18:27.604Z,9.93
2023-05-11T19:21:13.477Z,8.43
2023-05-11T19:23:59.509Z,7.45
2023-05-11T19:26:55.377Z,7.15
2023-05-11T19:29:51.425Z,7.28
2023-05-11T19:32:36.974Z,7.32
2023-05-11T19:35:23.046Z,7.32
2023-05-11T19:38:08.446Z,6.88
2023-05-11T19:40:54.088Z,6.55
2023-05-11T19:43:41.336Z,6.35
2023-05-11T19:46:27.403Z,6.45
2023-05-11T19:49:13.397Z,7.00
2023-05-11T19:51:59.295Z,6.75
2023-05-11T19:54:44.886Z,7.00
2023-05-11T19:57:32.227Z,6.53
2023-05-11T20:00:22.790Z,6.50
2023-05-11T20:03:08.846Z,6.20
2023-05-11T20:05:55.267Z,6.22
2023-05-11T20:08:41.618Z,6.57
2023-05-11T20:11:27.049Z,6.60
2023-05-11T20:14:13.310Z,6.63
2023-05-11T20:17:00.898Z,6.82
2023-05-11T20:19:46.945Z,7.72
2023-05-11T20:22:32.834Z,6.95
2023-05-11T20:25:22.159Z,7.68
2023-05-11T20:28:08.063Z,7.90
2023-05-11T20:30:55.110Z,8.45
2023-05-11T20:36:33.326Z,9.00
2023-05-11T20:39:21.419Z,9.30
2023-05-11T20:42:07.200Z,8.05
2023-05-11T20:44:53.297Z,8.07
2023-05-11T20:47:39.048Z,7.65
2023-05-11T20:50:26.887Z,8.15
2023-05-11T20:53:12.814Z,8.02
2023-05-11T20:55:59.418Z,7.38
2023-05-11T20:58:47.455Z,7.15
2023-05-11T21:01:33.278Z,7.82
2023-05-11T21:04:19.081Z,7.00
2023-05-11T21:07:06.574Z,7.75
2023-05-11T21:09:52.268Z,7.22
2023-05-11T21:12:38.089Z,7.38
2023-05-11T21:15:24.090Z,7.07
2023-05-11T21:18:09.779Z,6.85
2023-05-11T21:20:55.435Z,7.70
2023-05-11T21:23:42.601Z,7.72
2023-05-11T21:26:28.416Z,8.35
2023-05-11T21:29:13.860Z,8.30
2023-05-11T21:31:59.551Z,8.40
2023-05-11T21:34:45.207Z,8.45
2023-05-11T21:37:33.690Z,7.90
2023-05-11T21:40:20.991Z,7.72
2023-05-11T21:43:08.238Z,7.60
2023-05-11T21:45:55.088Z,7.38
2023-05-11T21:48:41.055Z,8.23
2023-05-11T21:51:26.792Z,8.30
2023-05-11T21:54:12.787Z,7.35
2023-05-11T21:56:59.868Z,5.88
2023-05-11T21:59:45.646Z,6.95
2023-05-11T22:02:31.332Z,6.78
2023-05-11T22:05:17.230Z,6.70
2023-05-11T22:08:13.318Z,5.80
2023-05-11T22:11:01.032Z,5.68
2023-05-11T22:13:48.326Z,5.72
2023-05-11T22:16:34.392Z,5.70
2023-05-11T22:19:20.273Z,5.20
2023-05-11T22:22:05.795Z,5.57
2023-05-11T22:24:51.174Z,5.65
2023-05-11T22:27:36.890Z,4.90
2023-05-11T22:30:24.162Z,5.65
2023-05-11T22:33:09.777Z,5.57
2023-05-11T22:35:55.672Z,6.15
2023-05-11T22:38:41.915Z,6.43
2023-05-11T22:41:27.724Z,7.53
2023-05-11T22:44:13.740Z,7.20
2023-05-11T22:47:02.338Z,7.28
2023-05-11T22:49:48.248Z,8.68
2023-05-11T22:52:34.079Z,8.57
2023-05-11T22:55:19.961Z,9.63
2023-05-11T22:58:05.320Z,9.35
2023-05-11T23:00:54.618Z,8.98
2023-05-11T23:03:41.798Z,9.35
2023-05-11T23:06:27.306Z,9.15
2023-05-11T23:09:12.916Z,9.20
2023-05-11T23:11:58.977Z,8.57
2023-05-11T23:14:44.638Z,9.35
2023-05-11T23:17:30.458Z,9.38
2023-05-11T23:20:17.717Z,9.15
2023-05-11T23:23:03.637Z,8.88
2023-05-11T23:25:49.332Z,9.70
2023-05-11T23:28:35.357Z,8.68
2023-05-11T23:31:21.079Z,9.25
2023-05-11T23:34:07.005Z,9.55
2023-05-11T23:36:54.038Z,9.40
2023-05-11T23:39:39.938Z,10.02
2023-05-11T23:42:25.268Z,9.27
2023-05-11T23:45:11.795Z,8.98
2023-05-11T23:47:57.409Z,8.75
2023-05-11T23:50:43.292Z,8.52
2023-05-11T23:53:30.458Z,7.85
2023-05-11T23:56:16.406Z,6.85
2023-05-11T23:59:01.933Z,6.88
